createdAt,value
2017-06-11T00:00:13.886Z,23.17
2017-06-11T00:02:41.233Z,24.97
2017-06-11T00:05:08.594Z,25.17
2017-06-11T00:07:35.922Z,20.50
2017-06-11T00:10:03.242Z,22.13
2017-06-11T00:12:30.563Z,17.60
2017-06-11T00:14:58.286Z,21.57
2017-06-11T00:17:25.607Z,20.10
2017-06-11T00:19:52.944Z,20.93
2017-06-11T00:22:20.273Z,22.07
2017-06-11T00:24:47.647Z,21.23
2017-06-11T00:27:15.259Z,27.47
2017-06-11T00:29:42.614Z,24.27
2017-06-11T00:32:10.409Z,20.07
2017-06-11T00:34:37.734Z,23.33
2017-06-11T00:37:05.344Z,24.37
2017-06-11T00:39:32.684Z,23.63
2017-06-11T00:42:00.019Z,25.03
2017-06-11T00:44:27.386Z,21.57
2017-06-11T00:46:55.326Z,24.60
2017-06-11T00:49:22.653Z,23.73
2017-06-11T00:51:50.014Z,25.10
2017-06-11T00:54:17.336Z,23.60
2017-06-11T00:56:44.701Z,25.47
2017-06-11T00:59:12.020Z,21.90
2017-06-11T01:01:39.413Z,25.30
2017-06-11T01:04:06.717Z,23.13
2017-06-11T01:06:34.025Z,22.10
2017-06-11T01:09:01.356Z,21.83
2017-06-11T01:11:28.725Z,23.17
2017-06-11T01:13:56.081Z,22.57
2017-06-11T01:16:23.449Z,23.40
2017-06-11T01:18:50.769Z,22.07
2017-06-11T01:21:18.105Z,26.97
2017-06-11T01:23:45.442Z,25.57
2017-06-11T01:26:12.770Z,24.20
2017-06-11T01:28:40.140Z,22.03
2017-06-11T01:31:07.761Z,24.20
2017-06-11T01:33:35.099Z,23.57
2017-06-11T01:36:02.407Z,24.63
2017-06-11T01:38:29.802Z,25.40
2017-06-11T01:40:57.151Z,22.57
2017-06-11T01:43:24.493Z,24.27
2017-06-11T01:45:51.846Z,27.50
2017-06-11T01:48:19.162Z,26.73
2017-06-11T01:50:46.555Z,21.10
2017-06-11T01:53:13.845Z,25.60
2017-06-11T01:55:41.193Z,25.37
2017-06-11T01:58:08.520Z,26.93
2017-06-11T02:00:35.885Z,28.53
2017-06-11T02:03:03.222Z,27.27
2017-06-11T02:05:30.552Z,26.47
2017-06-11T02:07:57.861Z,32.30
2017-06-11T02:10:25.210Z,25.10
2017-06-11T02:12:52.516Z,31.40
2017-06-11T02:15:19.845Z,27.77
2017-06-11T02:17:47.149Z,30.83
2017-06-11T02:20:14.457Z,27.93
2017-06-11T02:22:41.790Z,26.60
2017-06-11T02:25:09.113Z,26.83
2017-06-11T02:27:36.432Z,29.13
2017-06-11T02:30:03.771Z,28.80
2017-06-11T02:32:31.097Z,28.20
2017-06-11T02:34:58.466Z,28.73
2017-06-11T02:37:25.818Z,29.00
2017-06-11T02:39:53.126Z,27.47
2017-06-11T02:42:20.469Z,27.90
2017-06-11T02:44:47.794Z,27.33
2017-06-11T02:47:15.328Z,28.60
2017-06-11T02:49:42.642Z,27.87
2017-06-11T02:52:09.960Z,26.13
2017-06-11T02:54:37.603Z,24.77
2017-06-11T02:57:04.904Z,25.47
2017-06-11T02:59:32.220Z,24.93
2017-06-11T03:01:59.535Z,27.27
2017-06-11T03:04:26.857Z,28.10
2017-06-11T03:06:54.173Z,25.67
2017-06-11T03:09:21.532Z,26.43
2017-06-11T03:11:54.793Z,24.30
2017-06-11T03:14:22.145Z,24.17
2017-06-11T03:16:49.477Z,27.63
2017-06-11T03:19:16.821Z,19.40
2017-06-11T03:21:44.172Z,22.47
2017-06-11T03:24:11.508Z,20.40
2017-06-11T03:26:39.177Z,25.37
2017-06-11T03:29:06.505Z,20.13
2017-06-11T03:31:33.829Z,22.00
2017-06-11T03:34:01.158Z,19.73
2017-06-11T03:36:28.493Z,18.70
2017-06-11T03:38:55.800Z,19.33
2017-06-11T03:41:23.132Z,28.90
2017-06-11T03:43:50.436Z,19.40
2017-06-11T03:46:17.797Z,24.07
2017-06-11T03:48:45.116Z,18.30
2017-06-11T03:51:12.473Z,18.87
2017-06-11T03:53:39.804Z,23.07
2017-06-11T03:56:07.149Z,21.00
2017-06-11T03:58:34.485Z,19.27
2017-06-11T04:01:01.842Z,21.07
2017-06-11T04:03:30.155Z,21.13
2017-06-11T04:05:57.460Z,20.53
2017-06-11T04:08:24.796Z,22.73
2017-06-11T04:10:52.501Z,24.43
2017-06-11T04:13:19.829Z,22.23
2017-06-11T04:15:47.155Z,19.20
2017-06-11T04:18:14.479Z,21.80
2017-06-11T04:20:41.791Z,25.50
2017-06-11T04:23:09.257Z,24.03
2017-06-11T04:25:36.577Z,25.47
2017-06-11T04:28:03.901Z,19.80
2017-06-11T04:30:31.560Z,21.47
2017-06-11T04:32:58.925Z,20.13
2017-06-11T04:35:26.229Z,22.60
2017-06-11T04:37:53.592Z,19.43
2017-06-11T04:40:22.445Z,22.93
2017-06-11T04:42:49.773Z,22.60
2017-06-11T04:45:17.126Z,20.70
2017-06-11T04:47:44.441Z,19.80
2017-06-11T04:50:11.750Z,24.77
2017-06-11T04:52:39.072Z,22.43
2017-06-11T04:55:06.385Z,22.37
2017-06-11T04:57:33.719Z,20.07
2017-06-11T05:00:01.026Z,24.60
2017-06-11T05:02:28.388Z,22.03
2017-06-11T05:04:55.695Z,20.03
2017-06-11T05:07:23.001Z,18.30
2017-06-11T05:09:50.702Z,17.80
2017-06-11T05:12:17.998Z,17.93
2017-06-11T05:14:45.360Z,17.63
2017-06-11T05:17:12.690Z,21.57
2017-06-11T05:19:40.073Z,20.80
2017-06-11T05:22:07.390Z,18.00
2017-06-11T05:24:34.714Z,16.63
2017-06-11T05:27:02.057Z,20.60
2017-06-11T05:29:29.702Z,18.63
2017-06-11T05:31:57.066Z,18.13
2017-06-11T05:34:24.381Z,19.40
2017-06-11T05:36:51.767Z,15.23
2017-06-11T05:39:19.085Z,16.63
2017-06-11T05:41:46.408Z,16.50
2017-06-11T05:44:13.753Z,14.63
2017-06-11T05:46:41.141Z,14.37
2017-06-11T05:49:08.440Z,13.27
2017-06-11T05:51:35.773Z,13.70
2017-06-11T05:54:03.073Z,17.77
2017-06-11T05:56:30.400Z,12.90
2017-06-11T05:58:57.709Z,13.40
2017-06-11T06:01:25.364Z,14.30
2017-06-11T06:03:52.665Z,17.77
2017-06-11T06:06:19.996Z,12.33
2017-06-11T06:08:47.320Z,16.20
2017-06-11T06:11:14.673Z,11.77
2017-06-11T06:13:41.988Z,13.37
2017-06-11T06:16:09.287Z,14.50
2017-06-11T06:18:36.682Z,11.37
2017-06-11T06:21:03.977Z,12.77
2017-06-11T06:23:31.277Z,16.23
2017-06-11T06:25:58.601Z,15.23
2017-06-11T06:28:26.897Z,14.50
2017-06-11T06:30:54.269Z,16.87
2017-06-11T06:33:21.582Z,11.90
2017-06-11T06:35:48.991Z,12.57
2017-06-11T06:38:16.306Z,13.53
2017-06-11T06:40:43.616Z,14.30
2017-06-11T06:43:11.566Z,15.43
2017-06-11T06:45:39.202Z,12.50
2017-06-11T06:48:06.525Z,11.33
2017-06-11T06:50:33.821Z,10.83
2017-06-11T06:53:01.155Z,11.40
2017-06-11T06:55:28.473Z,9.20
2017-06-11T06:57:55.821Z,8.57
2017-06-11T07:00:23.164Z,10.33
2017-06-11T07:02:50.499Z,10.60
2017-06-11T07:05:17.846Z,9.53
2017-06-11T07:07:45.174Z,7.90
2017-06-11T07:10:12.488Z,9.30
2017-06-11T07:12:39.887Z,9.37
2017-06-11T07:15:07.185Z,6.27
2017-06-11T07:17:34.649Z,9.03
2017-06-11T07:20:01.994Z,13.10
2017-06-11T07:22:29.322Z,9.07
2017-06-11T07:24:56.655Z,9.37
2017-06-11T07:27:23.993Z,10.83
2017-06-11T07:29:51.288Z,11.80
2017-06-11T07:32:18.596Z,6.10
2017-06-11T07:34:45.933Z,9.93
2017-06-11T07:37:13.252Z,8.97
2017-06-11T07:39:40.656Z,11.20
2017-06-11T07:42:07.968Z,7.33
2017-06-11T07:44:35.325Z,9.10
2017-06-11T07:47:03.014Z,8.43
2017-06-11T07:49:30.324Z,7.03
2017-06-11T07:51:57.635Z,8.30
2017-06-11T07:54:24.945Z,9.77
2017-06-11T07:56:52.271Z,7.50
2017-06-11T07:59:19.568Z,9.30
2017-06-11T08:01:46.934Z,6.63
2017-06-11T08:04:14.237Z,10.03
2017-06-11T08:06:41.565Z,9.70
2017-06-11T08:09:08.869Z,8.47
2017-06-11T08:11:36.269Z,11.33
2017-06-11T08:14:03.841Z,7.00
2017-06-11T08:16:31.222Z,7.63
2017-06-11T08:18:58.717Z,7.33
2017-06-11T08:21:26.061Z,11.37
2017-06-11T08:23:53.380Z,9.77
2017-06-11T08:26:20.738Z,8.20
2017-06-11T08:28:48.033Z,7.23
2017-06-11T08:31:15.327Z,6.10
2017-06-11T08:33:42.960Z,9.03
2017-06-11T08:36:10.251Z,11.53
2017-06-11T08:38:37.583Z,8.23
2017-06-11T08:41:04.877Z,8.90
2017-06-11T08:43:32.233Z,12.43
2017-06-11T08:45:59.529Z,10.77
2017-06-11T08:48:26.870Z,12.60
2017-06-11T08:50:54.193Z,8.17
2017-06-11T08:53:21.521Z,11.27
2017-06-11T08:55:48.829Z,7.07
2017-06-11T08:58:16.137Z,7.10
2017-06-11T09:00:43.533Z,6.33
2017-06-11T09:03:10.922Z,8.70
2017-06-11T09:05:38.233Z,11.03
2017-06-11T09:08:05.566Z,8.83
2017-06-11T09:10:32.867Z,6.37
2017-06-11T09:13:00.401Z,8.83
2017-06-11T09:15:27.722Z,5.93
2017-06-11T09:17:55.054Z,6.23
2017-06-11T09:20:22.350Z,8.00
2017-06-11T09:22:49.645Z,8.50
2017-06-11T09:25:16.969Z,6.13
2017-06-11T09:27:44.569Z,7.00
2017-06-11T09:30:11.885Z,6.10
2017-06-11T09:32:39.232Z,9.53
2017-06-11T09:35:06.617Z,6.90
2017-06-11T09:37:33.952Z,6.80
2017-06-11T09:40:01.270Z,9.20
2017-06-11T09:42:28.815Z,5.93
2017-06-11T09:44:56.133Z,10.40
2017-06-11T09:47:23.491Z,4.70
2017-06-11T09:49:50.837Z,8.43
2017-06-11T09:52:18.213Z,6.73
2017-06-11T09:54:45.505Z,5.87
2017-06-11T09:57:12.841Z,5.83
2017-06-11T09:59:40.528Z,8.10
2017-06-11T10:02:07.821Z,7.00
2017-06-11T10:04:35.307Z,6.33
2017-06-11T10:07:03.340Z,5.80
2017-06-11T10:09:30.894Z,5.10
2017-06-11T10:11:58.212Z,4.03
2017-06-11T10:14:26.226Z,4.87
2017-06-11T10:16:54.130Z,5.53
2017-06-11T10:19:21.474Z,4.60
2017-06-11T10:21:49.122Z,5.53
2017-06-11T10:24:16.442Z,5.13
2017-06-11T10:26:43.746Z,5.47
2017-06-11T10:29:11.966Z,4.10
2017-06-11T10:31:39.307Z,7.37
2017-06-11T10:34:06.660Z,5.30
2017-06-11T10:36:34.030Z,4.17
2017-06-11T10:39:02.131Z,6.33
2017-06-11T10:41:29.626Z,3.90
2017-06-11T10:43:57.284Z,5.13
2017-06-11T10:46:24.621Z,4.60
2017-06-11T10:48:51.929Z,6.20
2017-06-11T10:51:19.280Z,10.60
2017-06-11T10:53:46.588Z,3.97
2017-06-11T10:56:13.910Z,3.00
2017-06-11T10:58:41.218Z,3.30
2017-06-11T11:01:08.525Z,4.10
2017-06-11T11:03:35.863Z,5.10
2017-06-11T11:06:03.817Z,7.53
2017-06-11T11:08:31.181Z,6.10
2017-06-11T11:10:58.536Z,3.97
2017-06-11T11:13:25.825Z,5.20
2017-06-11T11:15:53.155Z,4.50
2017-06-11T11:18:20.457Z,4.23
2017-06-11T11:20:47.752Z,5.80
2017-06-11T11:23:15.076Z,5.17
2017-06-11T11:25:42.374Z,3.73
2017-06-11T11:28:09.699Z,4.70
2017-06-11T11:30:37.029Z,4.47
2017-06-11T11:33:04.380Z,4.40
2017-06-11T11:35:31.727Z,3.70
2017-06-11T11:37:59.061Z,3.87
2017-06-11T11:40:26.406Z,4.60
2017-06-11T11:42:54.083Z,5.30
2017-06-11T11:45:21.381Z,5.97
2017-06-11T11:47:48.684Z,3.70
2017-06-11T11:50:15.973Z,2.80
2017-06-11T11:52:43.309Z,3.70
2017-06-11T11:55:10.611Z,5.40
2017-06-11T11:57:37.934Z,5.83
2017-06-11T12:00:05.430Z,3.87
2017-06-11T12:02:32.790Z,3.77
2017-06-11T12:05:00.097Z,3.73
2017-06-11T12:07:27.402Z,3.63
2017-06-11T12:09:54.840Z,2.87
2017-06-11T12:12:22.132Z,4.30
2017-06-11T12:14:49.445Z,2.87
2017-06-11T12:17:16.936Z,2.90
2017-06-11T12:19:44.307Z,5.57
2017-06-11T12:22:11.620Z,5.50
2017-06-11T12:24:38.979Z,4.20
2017-06-11T12:27:06.273Z,4.77
2017-06-11T12:29:33.580Z,4.23
2017-06-11T12:32:00.885Z,4.70
2017-06-11T12:34:28.202Z,3.33
2017-06-11T12:36:55.521Z,3.00
2017-06-11T12:39:22.822Z,4.43
2017-06-11T12:41:50.161Z,2.53
2017-06-11T12:44:17.468Z,3.60
2017-06-11T12:46:45.005Z,3.33
2017-06-11T12:49:12.321Z,4.17
2017-06-11T12:51:39.635Z,2.40
2017-06-11T12:54:06.947Z,3.07
2017-06-11T12:56:34.262Z,2.83
2017-06-11T12:59:01.621Z,3.20
2017-06-11T13:01:28.959Z,2.63
2017-06-11T13:03:56.301Z,4.27
2017-06-11T13:06:23.642Z,3.10
2017-06-11T13:08:50.973Z,1.97
2017-06-11T13:11:18.302Z,2.17
2017-06-11T13:13:45.669Z,3.50
2017-06-11T13:16:13.066Z,3.08
2017-06-11T13:18:40.366Z,5.03
2017-06-11T13:21:07.686Z,3.20
2017-06-11T13:23:34.997Z,2.57
2017-06-11T13:26:02.310Z,2.67
2017-06-11T13:28:29.644Z,2.87
2017-06-11T13:30:56.958Z,2.40
2017-06-11T13:33:24.329Z,2.45
2017-06-11T13:35:51.629Z,2.10
2017-06-11T13:38:18.963Z,2.53
2017-06-11T13:40:46.295Z,3.47
2017-06-11T13:43:13.596Z,2.57
2017-06-11T13:45:40.909Z,3.10
2017-06-11T13:48:08.233Z,2.77
2017-06-11T13:50:35.735Z,2.37
2017-06-11T13:53:03.052Z,2.35
2017-06-11T13:55:30.349Z,2.83
2017-06-11T13:57:57.679Z,3.17
2017-06-11T14:00:24.987Z,3.00
2017-06-11T14:02:52.301Z,4.10
2017-06-11T14:05:19.618Z,2.37
2017-06-11T14:07:46.975Z,2.87
2017-06-11T14:10:14.310Z,3.33
2017-06-11T14:12:41.645Z,2.40
2017-06-11T14:15:08.970Z,2.50
2017-06-11T14:17:36.277Z,2.62
2017-06-11T14:20:03.613Z,2.95
2017-06-11T14:22:30.953Z,2.45
2017-06-11T14:24:58.305Z,3.30
2017-06-11T14:27:25.622Z,2.22
2017-06-11T14:29:52.950Z,2.25
2017-06-11T14:32:20.293Z,2.28
2017-06-11T14:34:47.604Z,1.83
2017-06-11T14:37:14.948Z,2.05
2017-06-11T14:39:42.294Z,2.45
2017-06-11T14:42:09.590Z,1.93
2017-06-11T14:44:37.092Z,2.30
2017-06-11T14:47:04.432Z,2.40
2017-06-11T14:49:31.780Z,2.00
2017-06-11T14:51:59.098Z,2.72
2017-06-11T14:54:26.467Z,1.90
2017-06-11T14:56:53.802Z,4.78
2017-06-11T14:59:21.158Z,2.40
2017-06-11T15:01:48.476Z,2.58
2017-06-11T15:04:16.125Z,2.85
2017-06-11T15:06:43.486Z,3.90
2017-06-11T15:09:10.809Z,3.17
2017-06-11T15:11:38.134Z,2.12
2017-06-11T15:14:05.441Z,5.25
2017-06-11T15:16:32.749Z,2.90
2017-06-11T15:19:00.062Z,2.72
2017-06-11T15:21:27.816Z,3.58
2017-06-11T15:23:55.162Z,2.40
2017-06-11T15:26:22.476Z,2.40
2017-06-11T15:28:49.842Z,1.83
2017-06-11T15:31:17.196Z,2.00
2017-06-11T15:33:44.521Z,2.92
2017-06-11T15:36:11.894Z,2.70
2017-06-11T15:38:39.255Z,2.10
2017-06-11T15:41:07.811Z,3.50
2017-06-11T15:43:35.136Z,2.33
2017-06-11T15:46:02.458Z,2.70
2017-06-11T15:48:29.796Z,2.97
2017-06-11T15:50:57.157Z,3.23
2017-06-11T15:53:24.484Z,3.50
2017-06-11T15:55:51.815Z,4.07
2017-06-11T15:58:19.138Z,5.03
2017-06-11T16:00:46.430Z,2.50
2017-06-11T16:03:13.762Z,2.37
2017-06-11T16:05:41.110Z,5.73
2017-06-11T16:08:08.445Z,6.90
2017-06-11T16:10:35.765Z,2.53
2017-06-11T16:13:03.129Z,4.23
2017-06-11T16:15:30.446Z,3.93
2017-06-11T16:17:57.801Z,3.37
2017-06-11T16:20:25.118Z,3.20
2017-06-11T16:22:52.419Z,2.83
2017-06-11T16:25:19.742Z,2.93
2017-06-11T16:27:47.041Z,3.50
2017-06-11T16:30:14.353Z,3.70
2017-06-11T16:32:41.661Z,3.30
2017-06-11T16:35:08.990Z,3.93
2017-06-11T16:37:36.315Z,2.80
2017-06-11T16:40:03.637Z,2.97
2017-06-11T16:42:30.993Z,4.07
2017-06-11T16:44:58.316Z,2.83
2017-06-11T16:47:25.626Z,2.67
2017-06-11T16:49:52.937Z,6.30
2017-06-11T16:52:20.270Z,5.53
2017-06-11T16:54:47.613Z,4.10
2017-06-11T16:57:14.952Z,3.37
2017-06-11T16:59:42.310Z,2.70
2017-06-11T17:02:09.629Z,3.63
2017-06-11T17:04:37.923Z,4.07
2017-06-11T17:07:05.240Z,6.77
2017-06-11T17:09:32.574Z,4.83
2017-06-11T17:11:59.918Z,5.57
2017-06-11T17:14:27.229Z,4.60
2017-06-11T17:16:54.548Z,6.97
2017-06-11T17:19:21.841Z,3.40
2017-06-11T17:21:50.110Z,5.80
2017-06-11T17:24:17.445Z,4.10
2017-06-11T17:26:44.786Z,3.00
2017-06-11T17:29:12.108Z,6.53
2017-06-11T17:31:39.431Z,5.03
2017-06-11T17:34:06.811Z,4.77
2017-06-11T17:36:34.157Z,3.60
2017-06-11T17:39:01.477Z,5.60
2017-06-11T17:41:28.801Z,4.20
2017-06-11T17:43:56.357Z,5.70
2017-06-11T17:46:23.666Z,3.40
2017-06-11T17:48:50.982Z,4.70
2017-06-11T17:51:18.298Z,4.30
2017-06-11T17:53:45.605Z,3.63
2017-06-11T17:56:12.902Z,5.43
2017-06-11T17:58:40.237Z,4.83
2017-06-11T18:01:07.550Z,5.03
2017-06-11T18:03:34.874Z,6.50
2017-06-11T18:06:02.178Z,5.00
2017-06-11T18:08:29.492Z,8.93
2017-06-11T18:10:56.829Z,3.93
2017-06-11T18:13:24.186Z,4.53
2017-06-11T18:15:51.485Z,4.17
2017-06-11T18:18:18.811Z,6.07
2017-06-11T18:20:46.125Z,4.50
2017-06-11T18:23:13.426Z,4.57
2017-06-11T18:25:40.777Z,4.87
2017-06-11T18:28:08.089Z,5.90
2017-06-11T18:30:35.401Z,5.23
2017-06-11T18:33:02.697Z,4.40
2017-06-11T18:35:30.045Z,6.20
2017-06-11T18:37:57.372Z,3.60
2017-06-11T18:40:24.683Z,6.87
2017-06-11T18:42:51.982Z,4.53
2017-06-11T18:45:19.305Z,6.93
2017-06-11T18:47:46.654Z,5.77
2017-06-11T18:50:14.010Z,8.07
2017-06-11T18:52:41.316Z,3.33
2017-06-11T18:55:08.619Z,6.30
2017-06-11T18:57:35.941Z,5.50
2017-06-11T19:00:03.228Z,6.70
2017-06-11T19:02:30.550Z,6.70
2017-06-11T19:04:57.854Z,6.43
2017-06-11T19:07:25.164Z,4.97
2017-06-11T19:09:52.510Z,4.20
2017-06-11T19:12:19.892Z,11.30
2017-06-11T19:14:47.189Z,10.60
2017-06-11T19:17:14.849Z,8.30
2017-06-11T19:19:42.146Z,9.70
2017-06-11T19:22:09.456Z,8.33
2017-06-11T19:24:36.763Z,7.77
2017-06-11T19:27:04.117Z,7.30
2017-06-11T19:29:31.428Z,6.43
2017-06-11T19:31:58.757Z,5.30
2017-06-11T19:34:26.074Z,6.03
2017-06-11T19:36:53.365Z,6.70
2017-06-11T19:39:20.725Z,6.40
2017-06-11T19:41:48.047Z,5.60
2017-06-11T19:44:15.390Z,7.33
2017-06-11T19:46:42.714Z,5.00
2017-06-11T19:49:10.046Z,7.83
2017-06-11T19:51:37.341Z,6.87
2017-06-11T19:54:04.678Z,8.20
2017-06-11T19:56:31.989Z,6.20
2017-06-11T19:58:59.333Z,6.30
2017-06-11T20:01:26.667Z,6.80
2017-06-11T20:03:54.025Z,5.60
2017-06-11T20:06:21.347Z,6.17
2017-06-11T20:08:48.669Z,5.53
2017-06-11T20:11:15.995Z,7.10
2017-06-11T20:13:43.289Z,4.90
2017-06-11T20:16:10.654Z,6.60
2017-06-11T20:18:37.956Z,6.70
2017-06-11T20:21:05.314Z,7.07
2017-06-11T20:23:32.670Z,6.17
2017-06-11T20:25:59.999Z,6.23
2017-06-11T20:28:27.307Z,5.83
2017-06-11T20:30:54.628Z,6.10
2017-06-11T20:33:21.932Z,4.60
2017-06-11T20:35:49.255Z,6.23
2017-06-11T20:38:16.569Z,5.20
2017-06-11T20:40:43.894Z,7.57
2017-06-11T20:43:11.216Z,7.50
2017-06-11T20:45:38.515Z,6.37
2017-06-11T20:48:05.866Z,7.97
2017-06-11T20:50:33.172Z,4.90
2017-06-11T20:53:00.502Z,12.13
2017-06-11T20:55:27.856Z,7.20
2017-06-11T20:57:55.182Z,5.10
2017-06-11T21:00:22.490Z,7.53
2017-06-11T21:02:50.094Z,6.93
2017-06-11T21:05:17.425Z,6.33
2017-06-11T21:07:44.752Z,6.57
2017-06-11T21:10:12.049Z,5.53
2017-06-11T21:12:39.369Z,8.97
2017-06-11T21:15:06.698Z,9.17
2017-06-11T21:17:34.029Z,8.50
2017-06-11T21:20:01.401Z,9.70
2017-06-11T21:22:28.725Z,9.00
2017-06-11T21:24:56.093Z,10.20
2017-06-11T21:27:23.407Z,8.47
2017-06-11T21:29:50.775Z,8.70
2017-06-11T21:32:18.071Z,9.43
2017-06-11T21:34:45.393Z,9.87
2017-06-11T21:37:12.702Z,8.33
2017-06-11T21:39:40.053Z,8.90
2017-06-11T21:42:07.365Z,12.63
2017-06-11T21:44:34.679Z,9.90
2017-06-11T21:47:01.998Z,10.20
2017-06-11T21:49:29.315Z,9.40
2017-06-11T21:51:57.736Z,11.37
2017-06-11T21:54:25.053Z,6.93
2017-06-11T21:56:52.366Z,12.83
2017-06-11T21:59:19.665Z,7.00
2017-06-11T22:01:47.016Z,11.13
2017-06-11T22:04:14.337Z,10.13
2017-06-11T22:06:41.693Z,11.10
2017-06-11T22:09:09.013Z,12.40
2017-06-11T22:11:36.377Z,9.77
2017-06-11T22:14:03.702Z,10.70
2017-06-11T22:16:31.053Z,12.47
2017-06-11T22:18:58.377Z,8.83
2017-06-11T22:21:25.706Z,10.70
2017-06-11T22:23:53.026Z,9.57
2017-06-11T22:26:20.347Z,10.73
2017-06-11T22:28:47.649Z,10.53
2017-06-11T22:31:14.982Z,8.77
2017-06-11T22:33:42.299Z,10.30
2017-06-11T22:36:09.605Z,9.87
2017-06-11T22:38:36.923Z,8.63
2017-06-11T22:41:04.252Z,9.30
2017-06-11T22:43:31.609Z,10.87
2017-06-11T22:45:58.925Z,11.30
2017-06-11T22:48:26.232Z,9.37
2017-06-11T22:50:53.540Z,12.13
2017-06-11T22:53:20.880Z,9.10
2017-06-11T22:55:48.197Z,9.87
2017-06-11T22:58:15.540Z,14.97
2017-06-11T23:00:42.841Z,10.00
2017-06-11T23:03:10.168Z,11.17
2017-06-11T23:05:37.461Z,9.27
2017-06-11T23:08:04.797Z,13.23
2017-06-11T23:10:32.143Z,9.53
2017-06-11T23:12:59.465Z,10.73
2017-06-11T23:15:26.928Z,13.50
2017-06-11T23:17:54.266Z,13.30
2017-06-11T23:20:21.612Z,17.70
2017-06-11T23:22:48.933Z,9.93
2017-06-11T23:25:16.244Z,14.67
2017-06-11T23:27:43.558Z,13.40
2017-06-11T23:30:10.887Z,10.70
2017-06-11T23:32:38.185Z,11.53
2017-06-11T23:35:05.514Z,10.97
2017-06-11T23:37:32.817Z,11.90
2017-06-11T23:40:00.166Z,12.63
2017-06-11T23:42:27.769Z,10.87
2017-06-11T23:44:55.099Z,10.87
2017-06-11T23:47:22.414Z,11.90
2017-06-11T23:49:49.709Z,11.43
2017-06-11T23:52:17.062Z,10.33
2017-06-11T23:54:44.377Z,14.07
2017-06-11T23:57:11.738Z,12.23
2017-06-11T23:59:39.065Z,12.60
